Time;durP1;ratioP1;P1;durP2;ratioP2;P2;SDS_P1;SDS_P2;PMS_P1;PMS_P2;Temp;Humidity;BMP_temperature;BMP_pressure;BME280_temperature;BME280_humidity;BME280_pressure;Samples;Min_cycle;Max_cycle;Signal;HPM_P1;HPM_P2
2021/08/10 00:00:28;;;;;;;4.30;2.85;;;;;;;;;;4899385;29;20399;-44
2021/08/10 00:02:55;;;;;;;5.38;2.90;;;;;;;;;;4899409;29;20075;-43
2021/08/10 00:05:23;;;;;;;4.65;3.33;;;;;;;;;;4895989;29;20982;-42
2021/08/10 00:07:50;;;;;;;6.88;2.92;;;;;;;;;;4880396;29;20498;-45
2021/08/10 00:10:17;;;;;;;5.32;2.90;;;;;;;;;;4880472;29;20506;-42
2021/08/10 00:12:44;;;;;;;4.75;3.30;;;;;;;;;;4879174;29;20136;-42
2021/08/10 00:15:11;;;;;;;6.07;3.15;;;;;;;;;;4879888;29;20061;-45
2021/08/10 00:17:38;;;;;;;4.95;2.83;;;;;;;;;;4880322;29;20447;-43
2021/08/10 00:20:05;;;;;;;5.38;3.33;;;;;;;;;;4880306;29;20045;-43
2021/08/10 00:22:32;;;;;;;7.93;2.92;;;;;;;;;;4880316;29;20511;-44
2021/08/10 00:24:59;;;;;;;4.22;2.97;;;;;;;;;;4879521;29;20072;-47
2021/08/10 00:27:26;;;;;;;6.43;3.55;;;;;;;;;;4879102;29;20053;-42
2021/08/10 00:29:55;;;;;;;4.55;3.00;;;;;;;;;;4879199;29;20049;-42
2021/08/10 00:32:22;;;;;;;5.28;3.03;;;;;;;;;;4877880;29;20482;-43
2021/08/10 00:34:50;;;;;;;4.78;2.97;;;;;;;;;;4885465;29;20085;-45
2021/08/10 00:37:17;;;;;;;5.43;3.50;;;;;;;;;;4881949;29;20147;-45
2021/08/10 00:39:44;;;;;;;5.18;2.95;;;;;;;;;;4879014;29;20037;-45
2021/08/10 00:42:12;;;;;;;5.43;2.92;;;;;;;;;;4862457;29;20571;-46
2021/08/10 00:44:38;;;;;;;5.63;3.10;;;;;;;;;;4877336;29;20060;-44
2021/08/10 00:47:06;;;;;;;5.15;3.15;;;;;;;;;;4878915;29;20183;-46
2021/08/10 00:49:33;;;;;;;6.32;3.53;;;;;;;;;;4877908;29;20053;-45
2021/08/10 00:52:00;;;;;;;4.40;3.20;;;;;;;;;;4878878;29;20041;-42
2021/08/10 00:54:29;;;;;;;4.65;3.33;;;;;;;;;;4877051;29;20069;-45
2021/08/10 00:56:56;;;;;;;5.57;3.33;;;;;;;;;;4877832;29;20092;-45
2021/08/10 00:59:30;;;;;;;4.97;3.30;;;;;;;;;;4877640;29;20049;-46
2021/08/10 01:02:02;;;;;;;4.60;3.28;;;;;;;;;;4878604;29;20060;-44
2021/08/10 01:04:29;;;;;;;4.82;3.50;;;;;;;;;;4891476;29;20128;-43
2021/08/10 01:07:07;;;;;;;6.25;4.07;;;;;;;;;;4877457;29;20105;-46
2021/08/10 01:09:50;;;;;;;6.32;3.38;;;;;;;;;;4877538;29;20128;-45
2021/08/10 01:12:32;;;;;;;5.28;3.30;;;;;;;;;;4877138;29;20491;-48
2021/08/10 01:15:01;;;;;;;;;;;;;;;;;;4877632;29;20041;-46
2021/08/10 01:17:32;;;;;;;4.32;3.10;;;;;;;;;;4891206;29;19923;-45
2021/08/10 01:20:11;;;;;;;5.05;3.33;;;;;;;;;;4895905;29;20036;-44
2021/08/10 01:22:44;;;;;;;5.05;3.28;;;;;;;;;;4895947;29;20505;-45
2021/08/10 01:25:14;;;;;;;4.97;3.22;;;;;;;;;;4853917;29;1146583;-45
2021/08/10 01:28:05;;;;;;;3.65;3.00;;;;;;;;;;4878001;29;20049;-46
2021/08/10 01:30:52;;;;;;;4.47;3.55;;;;;;;;;;4878086;29;20503;-48
2021/08/10 01:33:20;;;;;;;5.70;3.05;;;;;;;;;;4882060;29;20182;-43
2021/08/10 01:36:25;;;;;;;6.15;3.78;;;;;;;;;;4893686;29;20096;-46
2021/08/10 01:38:56;;;;;;;6.18;3.60;;;;;;;;;;4880294;29;20045;-47
2021/08/10 01:41:24;;;;;;;5.15;3.65;;;;;;;;;;4877941;29;20123;-44
2021/08/10 01:43:53;;;;;;;6.15;3.22;;;;;;;;;;4877617;29;20112;-43
2021/08/10 01:46:22;;;;;;;4.85;3.42;;;;;;;;;;4877469;29;20049;-44
2021/08/10 01:48:52;;;;;;;4.38;2.95;;;;;;;;;;4877361;29;20045;-46
2021/08/10 01:51:23;;;;;;;4.95;3.50;;;;;;;;;;4878800;29;20181;-42
2021/08/10 01:53:51;;;;;;;5.33;3.90;;;;;;;;;;4893095;29;20526;-44
2021/08/10 01:56:19;;;;;;;6.15;3.58;;;;;;;;;;4892073;29;20360;-48
2021/08/10 01:58:48;;;;;;;5.45;3.40;;;;;;;;;;4877551;29;20048;-45
2021/08/10 02:01:16;;;;;;;6.05;3.60;;;;;;;;;;4892975;29;20045;-46
2021/08/10 02:03:44;;;;;;;6.43;3.30;;;;;;;;;;4892347;29;20101;-44
2021/08/10 02:06:17;;;;;;;4.25;3.70;;;;;;;;;;4876964;29;20048;-43
2021/08/10 02:08:48;;;;;;;6.57;3.78;;;;;;;;;;4877326;29;20056;-45
2021/08/10 02:11:17;;;;;;;4.90;3.30;;;;;;;;;;4880753;29;20472;-46
2021/08/10 02:13:45;;;;;;;5.80;3.53;;;;;;;;;;4884875;29;20041;-46
2021/08/10 02:16:13;;;;;;;5.93;3.63;;;;;;;;;;4887034;29;20533;-46
2021/08/10 02:18:44;;;;;;;5.57;3.63;;;;;;;;;;4878229;29;20047;-45
2021/08/10 02:21:40;;;;;;;4.00;3.38;;;;;;;;;;4877567;29;20077;-45
2021/08/10 02:24:10;;;;;;;5.55;3.78;;;;;;;;;;4876589;29;20052;-44
2021/08/10 02:26:46;;;;;;;5.97;3.73;;;;;;;;;;4876990;29;20131;-46
2021/08/10 02:29:17;;;;;;;4.68;3.30;;;;;;;;;;4872995;29;20662;-44
2021/08/10 02:31:45;;;;;;;7.43;3.95;;;;;;;;;;4880007;29;20056;-45
2021/08/10 02:34:15;;;;;;;6.30;3.95;;;;;;;;;;4874079;29;20523;-47
2021/08/10 02:36:42;;;;;;;5.70;3.45;;;;;;;;;;4892916;29;20071;-45
2021/08/10 02:39:09;;;;;;;5.50;3.72;;;;;;;;;;4877476;29;20041;-44
2021/08/10 02:41:40;;;;;;;5.78;4.00;;;;;;;;;;4876840;29;20591;-44
2021/08/10 02:44:09;;;;;;;5.47;3.65;;;;;;;;;;4876715;29;20073;-47
2021/08/10 02:46:38;;;;;;;6.47;3.90;;;;;;;;;;4876903;29;20045;-44
2021/08/10 02:49:09;;;;;;;6.93;4.03;;;;;;;;;;4877061;29;20105;-46
2021/08/10 02:51:37;;;;;;;5.53;3.83;;;;;;;;;;4876966;29;20072;-44
2021/08/10 02:54:04;;;;;;;5.90;3.58;;;;;;;;;;4876622;29;20496;-45
2021/08/10 02:56:33;;;;;;;6.75;3.92;;;;;;;;;;4877027;29;20041;-46
2021/08/10 02:59:26;;;;;;;5.85;3.90;;;;;;;;;;4892262;29;20123;-47
2021/08/10 03:01:58;;;;;;;5.65;3.83;;;;;;;;;;4879228;29;20045;-45
2021/08/10 03:04:29;;;;;;;5.88;3.70;;;;;;;;;;4895600;29;20515;-45
2021/08/10 03:06:57;;;;;;;7.63;3.97;;;;;;;;;;4911721;29;20037;-46
2021/08/10 03:09:24;;;;;;;5.75;3.92;;;;;;;;;;4892550;29;20662;-46
2021/08/10 03:11:53;;;;;;;6.50;3.95;;;;;;;;;;4882041;29;20449;-46
2021/08/10 03:14:20;;;;;;;7.18;4.20;;;;;;;;;;4880114;29;20045;-46
2021/08/10 03:16:47;;;;;;;4.53;3.60;;;;;;;;;;4880122;29;20040;-45
2021/08/10 03:19:15;;;;;;;7.25;4.13;;;;;;;;;;4881226;29;20415;-47
2021/08/10 03:21:44;;;;;;;6.50;3.75;;;;;;;;;;4880159;29;20111;-46
2021/08/10 03:24:12;;;;;;;5.35;3.70;;;;;;;;;;4881123;29;20045;-49
2021/08/10 03:26:40;;;;;;;5.95;4.22;;;;;;;;;;4906039;23;20045;-47
2021/08/10 03:29:07;;;;;;;4.78;3.40;;;;;;;;;;4880098;29;20125;-46
2021/08/10 03:31:37;;;;;;;5.65;3.42;;;;;;;;;;4879281;29;20041;-47
2021/08/10 03:34:04;;;;;;;5.63;3.38;;;;;;;;;;4875290;29;20524;-48
2021/08/10 03:36:31;;;;;;;5.68;3.35;;;;;;;;;;4871445;29;20048;-45
2021/08/10 03:38:58;;;;;;;7.95;3.85;;;;;;;;;;4867919;29;20045;-46
2021/08/10 03:41:27;;;;;;;6.13;3.53;;;;;;;;;;4860526;29;20054;-44
2021/08/10 03:43:55;;;;;;;8.40;3.40;;;;;;;;;;4860371;29;20045;-43
2021/08/10 03:46:23;;;;;;;10.00;3.83;;;;;;;;;;4861261;29;20072;-47
2021/08/10 03:48:50;;;;;;;5.10;3.28;;;;;;;;;;4894692;29;20511;-44
2021/08/10 03:51:17;;;;;;;5.75;4.05;;;;;;;;;;4894447;29;20120;-43
2021/08/10 03:53:44;;;;;;;4.97;3.60;;;;;;;;;;4894284;29;20057;-47
2021/08/10 03:56:15;;;;;;;6.93;3.47;;;;;;;;;;4876398;29;20045;-45
2021/08/10 03:58:48;;;;;;;4.57;3.10;;;;;;;;;;4875666;29;20046;-46
2021/08/10 04:01:19;;;;;;;8.47;3.70;;;;;;;;;;4875641;29;20377;-47
2021/08/10 04:03:49;;;;;;;5.07;4.10;;;;;;;;;;4861599;29;20308;-46
2021/08/10 04:06:17;;;;;;;5.13;3.72;;;;;;;;;;4859294;29;20045;-44
2021/08/10 04:08:47;;;;;;;5.60;3.25;;;;;;;;;;4860032;29;20078;-44
2021/08/10 04:11:18;;;;;;;5.25;3.70;;;;;;;;;;4859803;29;20424;-44
2021/08/10 04:13:49;;;;;;;5.85;3.63;;;;;;;;;;4859864;29;20148;-44
2021/08/10 04:16:17;;;;;;;4.25;3.17;;;;;;;;;;4844198;29;20048;-46
2021/08/10 04:18:44;;;;;;;4.45;3.30;;;;;;;;;;4894119;29;20124;-46
2021/08/10 04:21:11;;;;;;;5.40;2.90;;;;;;;;;;4878137;29;20156;-44
2021/08/10 04:23:39;;;;;;;5.05;2.67;;;;;;;;;;4879483;29;20045;-47
2021/08/10 04:26:07;;;;;;;4.50;2.65;;;;;;;;;;4874563;29;20506;-46
2021/08/10 04:28:33;;;;;;;4.60;2.85;;;;;;;;;;4859822;29;20101;-45
2021/08/10 04:31:00;;;;;;;6.45;2.90;;;;;;;;;;4859862;29;20183;-45
2021/08/10 04:33:28;;;;;;;4.85;2.90;;;;;;;;;;4860958;29;20046;-47
2021/08/10 04:35:57;;;;;;;6.28;3.03;;;;;;;;;;4870086;29;20045;-45
2021/08/10 04:38:24;;;;;;;3.72;2.55;;;;;;;;;;4872459;29;20488;-44
2021/08/10 04:40:52;;;;;;;4.40;2.90;;;;;;;;;;4859541;29;20552;-45
2021/08/10 04:43:45;;;;;;;4.03;2.70;;;;;;;;;;4859391;29;20136;-45
2021/08/10 04:46:12;;;;;;;4.40;2.42;;;;;;;;;;4858735;29;20054;-45
2021/08/10 04:48:39;;;;;;;6.28;3.10;;;;;;;;;;4874996;29;20069;-44
2021/08/10 04:51:09;;;;;;;4.00;2.53;;;;;;;;;;4874880;29;20053;-46
2021/08/10 04:53:37;;;;;;;3.63;2.45;;;;;;;;;;4859002;29;20045;-44
2021/08/10 04:56:05;;;;;;;4.30;2.45;;;;;;;;;;4858339;29;20099;-47
2021/08/10 04:58:32;;;;;;;3.28;2.38;;;;;;;;;;4859122;29;20124;-45
2021/08/10 05:00:59;;;;;;;3.55;2.53;;;;;;;;;;4874597;29;20049;-47
2021/08/10 05:03:31;;;;;;;3.45;2.38;;;;;;;;;;4859181;29;20045;-46
2021/08/10 05:05:58;;;;;;;4.57;2.50;;;;;;;;;;4873632;29;20495;-47
2021/08/10 05:08:26;;;;;;;3.38;2.28;;;;;;;;;;4859060;29;20389;-44
2021/08/10 05:10:58;;;;;;;4.50;2.63;;;;;;;;;;4858775;29;20048;-45
2021/08/10 05:13:27;;;;;;;3.30;2.60;;;;;;;;;;4867277;29;20047;-46
2021/08/10 05:15:54;;;;;;;5.03;2.67;;;;;;;;;;4868429;29;20068;-49
2021/08/10 05:18:23;;;;;;;5.00;2.38;;;;;;;;;;4890802;29;20041;-46
2021/08/10 05:20:49;;;;;;;3.58;2.58;;;;;;;;;;4864324;29;20076;-46
2021/08/10 05:23:16;;;;;;;4.03;2.70;;;;;;;;;;4874751;29;20044;-44
2021/08/10 05:25:43;;;;;;;4.88;2.72;;;;;;;;;;4866524;29;20049;-45
2021/08/10 05:28:10;;;;;;;3.42;2.47;;;;;;;;;;4884802;29;20085;-47
2021/08/10 05:30:37;;;;;;;5.55;2.90;;;;;;;;;;4870595;29;20056;-48
2021/08/10 05:33:07;;;;;;;5.53;2.53;;;;;;;;;;4863166;29;20453;-48
2021/08/10 05:35:36;;;;;;;5.78;2.60;;;;;;;;;;4864839;29;20368;-47
2021/08/10 05:38:04;;;;;;;4.55;2.38;;;;;;;;;;4857834;29;20073;-49
2021/08/10 05:40:33;;;;;;;3.92;2.30;;;;;;;;;;4866575;29;20526;-45
2021/08/10 05:43:01;;;;;;;3.95;2.33;;;;;;;;;;4873550;29;20076;-46
2021/08/10 05:45:29;;;;;;;3.55;2.30;;;;;;;;;;4874058;29;20050;-49
2021/08/10 05:47:55;;;;;;;4.90;2.50;;;;;;;;;;4884765;29;20056;-44
2021/08/10 05:50:23;;;;;;;3.67;2.45;;;;;;;;;;4882692;29;20048;-44
2021/08/10 05:52:52;;;;;;;3.58;2.08;;;;;;;;;;4871837;29;20112;-46
2021/08/10 05:55:19;;;;;;;3.63;2.38;;;;;;;;;;4861199;29;20085;-45
2021/08/10 05:57:48;;;;;;;3.95;2.35;;;;;;;;;;4877568;29;20463;-45
2021/08/10 06:00:15;;;;;;;3.15;2.25;;;;;;;;;;4868808;29;20045;-45
2021/08/10 06:02:55;;;;;;;5.55;2.30;;;;;;;;;;4887576;29;20069;-48
2021/08/10 06:05:25;;;;;;;3.80;2.25;;;;;;;;;;4858695;29;20052;-47
2021/08/10 06:07:52;;;;;;;4.85;2.72;;;;;;;;;;4863710;29;20445;-42
2021/08/10 06:10:19;;;;;;;7.38;3.13;;;;;;;;;;4876694;29;20507;-45
2021/08/10 06:12:46;;;;;;;4.30;2.92;;;;;;;;;;4871352;29;20041;-44
2021/08/10 06:15:14;;;;;;;4.90;2.53;;;;;;;;;;4889708;29;20114;-42
2021/08/10 06:17:42;;;;;;;3.05;1.90;;;;;;;;;;4875904;29;20068;-44
2021/08/10 06:20:11;;;;;;;3.42;2.13;;;;;;;;;;4868298;29;20063;-46
2021/08/10 06:22:39;;;;;;;6.68;2.28;;;;;;;;;;4885278;29;20101;-46
2021/08/10 06:25:07;;;;;;;4.50;2.53;;;;;;;;;;4863947;29;20415;-42
2021/08/10 06:27:34;;;;;;;4.72;2.38;;;;;;;;;;4888361;29;20095;-42
2021/08/10 06:30:01;;;;;;;4.13;2.65;;;;;;;;;;4865174;29;20128;-45
2021/08/10 06:32:29;;;;;;;4.32;2.33;;;;;;;;;;4865913;29;20057;-42
2021/08/10 06:34:55;;;;;;;3.38;2.00;;;;;;;;;;4875675;29;20089;-42
2021/08/10 06:37:37;;;;;;;4.55;2.42;;;;;;;;;;4875703;29;20089;-42
2021/08/10 06:40:04;;;;;;;3.95;2.05;;;;;;;;;;4876562;29;20092;-47
2021/08/10 06:42:31;;;;;;;4.30;2.65;;;;;;;;;;4881204;29;20046;-46
2021/08/10 06:45:02;;;;;;;4.43;2.50;;;;;;;;;;4872610;29;20045;-43
2021/08/10 06:47:29;;;;;;;4.22;2.42;;;;;;;;;;4860841;29;20419;-44
2021/08/10 06:49:56;;;;;;;3.00;2.10;;;;;;;;;;4885553;29;20041;-44
2021/08/10 06:52:25;;;;;;;4.15;2.45;;;;;;;;;;4869232;29;20055;-45
2021/08/10 06:54:53;;;;;;;4.28;2.60;;;;;;;;;;4887206;29;20127;-42
2021/08/10 06:57:20;;;;;;;4.85;2.47;;;;;;;;;;4875341;29;20045;-45
2021/08/10 06:59:48;;;;;;;4.15;2.20;;;;;;;;;;4863366;29;20427;-46
2021/08/10 07:02:15;;;;;;;5.10;2.25;;;;;;;;;;4882879;29;20542;-42
2021/08/10 07:04:42;;;;;;;4.80;2.70;;;;;;;;;;4873166;29;20127;-45
2021/08/10 07:07:09;;;;;;;5.13;2.53;;;;;;;;;;4860942;29;20129;-41
2021/08/10 07:09:39;;;;;;;4.82;2.83;;;;;;;;;;4891657;29;20120;-43
2021/08/10 07:12:06;;;;;;;6.47;2.50;;;;;;;;;;4888541;29;20041;-42
2021/08/10 07:14:40;;;;;;;5.70;2.20;;;;;;;;;;4865916;29;20048;-46
2021/08/10 07:17:08;;;;;;;5.05;2.40;;;;;;;;;;4860747;29;20041;-48
2021/08/10 07:19:35;;;;;;;3.90;2.40;;;;;;;;;;4891113;29;20044;-48
2021/08/10 07:22:06;;;;;;;2.92;1.90;;;;;;;;;;4883795;29;20049;-45
2021/08/10 07:24:33;;;;;;;4.85;2.30;;;;;;;;;;4884053;29;20049;-48
2021/08/10 07:27:00;;;;;;;18.02;12.25;;;;;;;;;;4876656;29;20046;-46
2021/08/10 07:29:31;;;;;;;4.10;2.67;;;;;;;;;;4891065;29;20075;-46
2021/08/10 07:32:00;;;;;;;5.43;2.72;;;;;;;;;;4869091;29;20137;-49
2021/08/10 07:34:44;;;;;;;3.55;2.10;;;;;;;;;;4869998;29;20487;-47
2021/08/10 07:37:18;;;;;;;5.60;2.30;;;;;;;;;;4862149;29;20095;-47
2021/08/10 07:39:46;;;;;;;3.63;2.40;;;;;;;;;;4875241;29;20514;-46
2021/08/10 07:42:18;;;;;;;5.88;4.15;;;;;;;;;;4882229;29;20098;-46
2021/08/10 07:44:45;;;;;;;3.67;2.20;;;;;;;;;;4869564;29;20065;-48
2021/08/10 07:47:12;;;;;;;3.58;2.03;;;;;;;;;;4862700;29;20057;-49
2021/08/10 07:49:39;;;;;;;2.97;1.90;;;;;;;;;;4875984;29;20068;-46
2021/08/10 07:52:06;;;;;;;5.25;2.22;;;;;;;;;;4868200;29;20137;-48
2021/08/10 07:54:33;;;;;;;3.90;2.10;;;;;;;;;;4873999;29;20041;-45
2021/08/10 07:57:00;;;;;;;4.43;2.40;;;;;;;;;;4878972;29;20045;-45
2021/08/10 07:59:27;;;;;;;3.88;2.40;;;;;;;;;;4864669;29;20093;-46
2021/08/10 08:01:55;;;;;;;3.15;2.10;;;;;;;;;;4888127;29;20130;-46
2021/08/10 08:04:23;;;;;;;3.55;2.33;;;;;;;;;;4869445;29;20124;-46
2021/08/10 08:06:50;;;;;;;5.10;2.20;;;;;;;;;;4878878;29;20055;-46
2021/08/10 08:09:17;;;;;;;4.05;2.40;;;;;;;;;;4863803;29;20061;-49
2021/08/10 08:11:45;;;;;;;4.45;2.45;;;;;;;;;;4890816;29;20188;-46
2021/08/10 08:14:15;;;;;;;3.45;2.10;;;;;;;;;;4889383;29;20041;-47
2021/08/10 08:16:42;;;;;;;4.95;2.22;;;;;;;;;;4875151;29;20041;-48
2021/08/10 08:19:09;;;;;;;5.60;2.03;;;;;;;;;;4872721;29;20046;-45
2021/08/10 08:21:36;;;;;;;5.63;2.30;;;;;;;;;;4864739;29;20097;-46
2021/08/10 08:24:04;;;;;;;3.47;2.03;;;;;;;;;;4876904;29;20080;-47
2021/08/10 08:26:31;;;;;;;3.92;1.98;;;;;;;;;;4886282;29;20088;-47
2021/08/10 08:29:00;;;;;;;3.45;1.90;;;;;;;;;;4863805;29;20045;-45
2021/08/10 08:31:28;;;;;;;4.80;2.00;;;;;;;;;;4890711;29;20105;-45
2021/08/10 08:34:03;;;;;;;4.10;2.08;;;;;;;;;;4890426;29;20413;-48
2021/08/10 08:36:30;;;;;;;3.60;2.17;;;;;;;;;;4883049;29;20504;-46
2021/08/10 08:38:57;;;;;;;3.90;1.85;;;;;;;;;;4874726;29;20055;-46
2021/08/10 08:41:25;;;;;;;4.47;2.42;;;;;;;;;;4875756;29;20105;-48
2021/08/10 08:43:52;;;;;;;3.08;1.80;;;;;;;;;;4865932;29;20444;-44
2021/08/10 08:46:22;;;;;;;4.68;1.90;;;;;;;;;;4883750;29;20056;-46
2021/08/10 08:48:50;;;;;;;2.63;1.60;;;;;;;;;;4890358;29;20067;-47
2021/08/10 08:51:24;;;;;;;4.05;2.25;;;;;;;;;;4878164;29;20454;-46
2021/08/10 08:53:54;;;;;;;5.63;2.42;;;;;;;;;;4871820;29;20128;-46
2021/08/10 08:56:26;;;;;;;3.55;1.98;;;;;;;;;;4884483;29;20215;-46
2021/08/10 08:58:57;;;;;;;3.88;2.00;;;;;;;;;;4877172;29;20052;-46
2021/08/10 09:01:25;;;;;;;2.78;1.90;;;;;;;;;;4878182;29;20041;-47
2021/08/10 09:03:52;;;;;;;3.25;2.10;;;;;;;;;;4873836;29;20060;-47
2021/08/10 09:06:21;;;;;;;4.22;2.00;;;;;;;;;;4886858;29;20049;-46
2021/08/10 09:08:55;;;;;;;4.03;1.83;;;;;;;;;;4887143;29;20061;-45
2021/08/10 09:11:27;;;;;;;5.15;2.30;;;;;;;;;;4872882;29;20067;-45
2021/08/10 09:13:56;;;;;;;3.22;2.13;;;;;;;;;;4879325;29;20045;-49
2021/08/10 09:16:24;;;;;;;3.17;2.13;;;;;;;;;;4884340;29;20037;-47
2021/08/10 09:18:51;;;;;;;3.75;1.92;;;;;;;;;;4861719;29;20532;-45
2021/08/10 09:21:20;;;;;;;3.45;1.90;;;;;;;;;;4875683;29;20113;-46
2021/08/10 09:24:00;;;;;;;4.70;2.00;;;;;;;;;;4865816;29;20400;-45
2021/08/10 09:26:40;;;;;;;5.20;2.83;;;;;;;;;;4886306;29;20045;-46
2021/08/10 09:29:16;;;;;;;4.40;2.25;;;;;;;;;;4878469;29;20049;-46
2021/08/10 09:31:45;;;;;;;5.05;2.20;;;;;;;;;;4890008;29;20476;-46
2021/08/10 09:34:24;;;;;;;3.80;2.20;;;;;;;;;;4867756;29;20064;-48
2021/08/10 09:36:53;;;;;;;3.30;1.92;;;;;;;;;;4876293;29;20376;-47
2021/08/10 09:39:33;;;;;;;5.35;2.80;;;;;;;;;;4891848;29;20049;-48
2021/08/10 09:42:03;;;;;;;3.65;1.88;;;;;;;;;;4892608;29;20097;-45
2021/08/10 09:44:33;;;;;;;4.22;2.35;;;;;;;;;;4877734;29;20427;-47
2021/08/10 09:47:00;;;;;;;3.58;2.15;;;;;;;;;;4876419;29;20052;-46
2021/08/10 09:49:41;;;;;;;3.75;2.00;;;;;;;;;;4892839;29;20048;-49
2021/08/10 09:52:22;;;;;;;4.65;2.38;;;;;;;;;;4878385;29;20049;-46
2021/08/10 09:54:54;;;;;;;3.70;2.13;;;;;;;;;;4876712;29;20037;-47
2021/08/10 09:57:21;;;;;;;4.53;2.00;;;;;;;;;;4876193;29;20045;-45
2021/08/10 09:59:48;;;;;;;5.10;2.42;;;;;;;;;;4892504;29;20048;-48
2021/08/10 10:02:24;;;;;;;3.45;2.00;;;;;;;;;;4892356;29;20052;-46
2021/08/10 10:04:52;;;;;;;3.08;1.77;;;;;;;;;;4860773;29;20044;-47
2021/08/10 10:07:19;;;;;;;3.70;2.05;;;;;;;;;;4876720;29;20498;-46
2021/08/10 10:09:53;;;;;;;4.75;2.28;;;;;;;;;;4876168;29;20438;-46
2021/08/10 10:12:23;;;;;;;4.93;2.00;;;;;;;;;;4875957;29;20083;-48
2021/08/10 10:14:55;;;;;;;3.70;2.20;;;;;;;;;;4892041;29;20093;-47
2021/08/10 10:17:23;;;;;;;4.28;2.40;;;;;;;;;;4871982;29;20124;-51
2021/08/10 10:19:50;;;;;;;3.40;1.85;;;;;;;;;;4869877;29;20045;-48
2021/08/10 10:22:22;;;;;;;3.33;2.13;;;;;;;;;;4877335;29;20045;-48
2021/08/10 10:24:57;;;;;;;4.57;2.17;;;;;;;;;;4876812;29;20048;-49
2021/08/10 10:27:24;;;;;;;3.70;1.88;;;;;;;;;;4872783;29;20520;-51
2021/08/10 10:29:54;;;;;;;7.80;2.25;;;;;;;;;;4859061;29;20136;-48
2021/08/10 10:32:21;;;;;;;3.90;2.08;;;;;;;;;;4870122;29;20037;-54
2021/08/10 10:34:49;;;;;;;2.38;1.63;;;;;;;;;;4876875;29;20045;-50
2021/08/10 10:37:20;;;;;;;3.78;2.30;;;;;;;;;;4877552;29;20055;-51
2021/08/10 10:39:55;;;;;;;3.53;2.03;;;;;;;;;;4873798;29;20056;-47
2021/08/10 10:42:22;;;;;;;3.43;1.90;;;;;;;;;;4866444;29;20045;-46
2021/08/10 10:45:31;;;;;;;3.38;2.22;;;;;;;;;;4860433;29;20119;-51
2021/08/10 10:48:27;;;;;;;3.25;2.17;;;;;;;;;;4856886;29;20057;-48
2021/08/10 10:51:08;;;;;;;3.42;2.03;;;;;;;;;;5129658;27;21052;-48
2021/08/10 10:53:35;;;;;;;5.93;2.75;;;;;;;;;;5122605;28;20039;-50
2021/08/10 10:56:02;;;;;;;3.15;2.13;;;;;;;;;;5125119;28;20123;-49
2021/08/10 10:58:33;;;;;;;3.50;2.25;;;;;;;;;;5115726;28;20093;-47
2021/08/10 11:01:11;;;;;;;3.65;2.08;;;;;;;;;;5124630;27;20047;-54
2021/08/10 11:03:38;;;;;;;3.50;2.40;;;;;;;;;;5110664;28;20123;-52
2021/08/10 11:06:28;;;;;;;3.40;2.00;;;;;;;;;;5125725;28;20039;-49
2021/08/10 11:08:56;;;;;;;3.70;2.13;;;;;;;;;;5110574;28;20053;-49
2021/08/10 11:11:43;;;;;;;3.65;2.00;;;;;;;;;;5115805;28;20108;-52
2021/08/10 11:14:28;;;;;;;3.25;2.10;;;;;;;;;;5113062;28;20123;-49
2021/08/10 11:17:07;;;;;;;3.53;2.13;;;;;;;;;;5112555;28;20097;-52
2021/08/10 11:19:39;;;;;;;3.40;1.98;;;;;;;;;;5122986;28;20047;-54
2021/08/10 11:22:15;;;;;;;4.00;2.25;;;;;;;;;;5117475;28;20051;-53
2021/08/10 11:24:51;;;;;;;4.43;2.13;;;;;;;;;;5108209;28;20671;-51
2021/08/10 11:27:32;;;;;;;2.90;1.90;;;;;;;;;;5108359;28;20153;-52
2021/08/10 11:30:00;;;;;;;4.57;2.22;;;;;;;;;;5120027;28;20078;-51
2021/08/10 11:32:40;;;;;;;3.47;2.08;;;;;;;;;;5125805;28;20054;-51
2021/08/10 11:35:26;;;;;;;3.15;1.90;;;;;;;;;;5129677;27;20057;-50
2021/08/10 11:38:16;;;;;;;3.10;2.13;;;;;;;;;;5123320;28;20048;-49
2021/08/10 11:40:49;;;;;;;3.40;2.22;;;;;;;;;;5128000;27;20057;-49
2021/08/10 11:43:16;;;;;;;3.40;2.40;;;;;;;;;;5118540;27;20514;-52
2021/08/10 11:45:43;;;;;;;3.33;2.03;;;;;;;;;;5125197;27;20089;-53
2021/08/10 11:48:10;;;;;;;2.90;1.83;;;;;;;;;;5109407;27;20365;-50
2021/08/10 11:50:36;;;;;;;3.40;1.90;;;;;;;;;;5123800;28;20039;-52
2021/08/10 11:53:03;;;;;;;5.45;2.20;;;;;;;;;;5110113;28;20123;-50
2021/08/10 11:55:31;;;;;;;3.90;2.10;;;;;;;;;;5121693;28;20039;-51
2021/08/10 11:57:59;;;;;;;3.30;1.83;;;;;;;;;;5116774;28;20130;-49
2021/08/10 12:00:27;;;;;;;2.50;1.60;;;;;;;;;;5110414;28;20509;-50
2021/08/10 12:02:54;;;;;;;3.70;2.28;;;;;;;;;;5102166;28;20134;-50
2021/08/10 12:05:23;;;;;;;3.78;1.95;;;;;;;;;;5103392;28;20345;-52
2021/08/10 12:07:57;;;;;;;3.00;1.80;;;;;;;;;;5099148;28;20077;-48
2021/08/10 12:10:26;;;;;;;3.42;2.00;;;;;;;;;;5097816;28;20514;-52
2021/08/10 12:12:53;;;;;;;3.25;2.00;;;;;;;;;;5095010;28;20124;-53
2021/08/10 12:15:33;;;;;;;3.83;1.98;;;;;;;;;;5092974;28;20124;-48
2021/08/10 12:18:00;;;;;;;6.47;1.83;;;;;;;;;;5106602;27;20040;-49
2021/08/10 12:20:27;;;;;;;5.07;2.38;;;;;;;;;;5106787;27;20059;-51
2021/08/10 12:23:01;;;;;;;3.03;2.08;;;;;;;;;;5111107;28;20493;-49
2021/08/10 12:25:28;;;;;;;2.60;1.90;;;;;;;;;;5107663;28;20071;-49
2021/08/10 12:28:02;;;;;;;4.80;2.08;;;;;;;;;;5112466;27;20054;-47
2021/08/10 12:30:30;;;;;;;2.90;1.98;;;;;;;;;;5101547;28;20052;-49
2021/08/10 12:33:17;;;;;;;3.08;1.92;;;;;;;;;;5112956;28;20040;-48
2021/08/10 12:35:57;;;;;;;5.30;2.15;;;;;;;;;;5113652;28;20427;-49
2021/08/10 12:38:24;;;;;;;4.40;2.08;;;;;;;;;;5103427;28;20504;-51
2021/08/10 12:40:52;;;;;;;7.38;2.33;;;;;;;;;;5105991;28;20052;-50
2021/08/10 12:43:19;;;;;;;3.20;1.85;;;;;;;;;;5108754;28;20327;-51
2021/08/10 12:45:47;;;;;;;5.68;2.22;;;;;;;;;;5113257;28;20458;-46
2021/08/10 12:48:24;;;;;;;2.67;1.83;;;;;;;;;;5100999;28;20046;-51
2021/08/10 12:50:55;;;;;;;2.75;1.88;;;;;;;;;;5112456;28;20036;-48
2021/08/10 12:53:40;;;;;;;3.38;1.77;;;;;;;;;;5108338;28;20051;-50
2021/08/10 12:56:07;;;;;;;2.97;1.65;;;;;;;;;;5092821;28;20083;-50
2021/08/10 12:58:50;;;;;;;3.65;2.08;;;;;;;;;;5099332;28;20135;-48
2021/08/10 13:01:16;;;;;;;3.30;1.98;;;;;;;;;;5105559;28;20536;-51
2021/08/10 13:03:44;;;;;;;3.85;2.30;;;;;;;;;;5103282;28;20049;-49
2021/08/10 13:06:23;;;;;;;4.20;2.25;;;;;;;;;;5111501;28;20050;-51
2021/08/10 13:08:55;;;;;;;3.05;2.22;;;;;;;;;;5101343;28;20078;-49
2021/08/10 13:11:22;;;;;;;3.60;2.35;;;;;;;;;;5111661;28;20046;-48
2021/08/10 13:13:49;;;;;;;3.45;2.22;;;;;;;;;;5111916;28;20052;-48
2021/08/10 13:16:35;;;;;;;3.78;2.38;;;;;;;;;;5110809;28;20040;-51
2021/08/10 13:19:10;;;;;;;3.30;2.28;;;;;;;;;;5113230;28;20036;-50
2021/08/10 13:21:42;;;;;;;4.97;2.75;;;;;;;;;;5112994;28;20048;-49
2021/08/10 13:24:09;;;;;;;3.40;2.00;;;;;;;;;;5112765;28;20051;-53
2021/08/10 13:26:45;;;;;;;3.28;2.15;;;;;;;;;;5109287;28;20047;-48
2021/08/10 13:29:13;;;;;;;4.38;2.30;;;;;;;;;;5107765;28;20477;-49
2021/08/10 13:31:53;;;;;;;3.65;2.20;;;;;;;;;;5103820;27;20078;-47
2021/08/10 13:34:21;;;;;;;5.30;2.13;;;;;;;;;;5099810;28;20036;-48
2021/08/10 13:36:47;;;;;;;4.10;2.08;;;;;;;;;;5098793;28;20036;-46
2021/08/10 13:39:15;;;;;;;3.72;2.08;;;;;;;;;;5091925;28;20098;-51
2021/08/10 13:41:43;;;;;;;4.43;2.53;;;;;;;;;;5105033;28;20119;-47
2021/08/10 13:44:10;;;;;;;4.07;2.40;;;;;;;;;;5106421;27;20098;-48
2021/08/10 13:46:41;;;;;;;3.35;2.17;;;;;;;;;;5112526;28;20035;-45
2021/08/10 13:49:11;;;;;;;3.28;2.28;;;;;;;;;;5112715;28;20047;-48
2021/08/10 13:51:40;;;;;;;4.15;2.40;;;;;;;;;;5112784;28;20050;-47
2021/08/10 13:54:08;;;;;;;3.35;2.08;;;;;;;;;;5091770;28;20145;-48
2021/08/10 13:56:35;;;;;;;4.10;2.47;;;;;;;;;;5091868;28;20028;-46
2021/08/10 13:59:03;;;;;;;3.67;2.08;;;;;;;;;;5092386;28;20047;-48
2021/08/10 14:01:36;;;;;;;4.53;2.40;;;;;;;;;;5092050;28;20046;-48
2021/08/10 14:04:03;;;;;;;3.65;2.38;;;;;;;;;;5091811;28;20134;-47
2021/08/10 14:06:34;;;;;;;4.25;2.53;;;;;;;;;;5103250;28;20040;-47
2021/08/10 14:09:01;;;;;;;3.10;2.03;;;;;;;;;;5099910;28;20040;-47
2021/08/10 14:11:27;;;;;;;4.20;2.35;;;;;;;;;;5111886;28;20046;-51
2021/08/10 14:13:54;;;;;;;3.03;2.00;;;;;;;;;;5100765;28;20040;-47
2021/08/10 14:16:23;;;;;;;3.83;2.30;;;;;;;;;;5091680;28;20036;-48
2021/08/10 14:18:51;;;;;;;3.08;1.85;;;;;;;;;;5102419;28;20444;-48
2021/08/10 14:21:18;;;;;;;4.07;2.10;;;;;;;;;;5112069;28;20068;-48
2021/08/10 14:23:45;;;;;;;5.45;2.35;;;;;;;;;;5102345;28;20050;-48
2021/08/10 14:26:12;;;;;;;3.92;2.28;;;;;;;;;;5091604;28;20039;-48
2021/08/10 14:28:40;;;;;;;3.50;2.20;;;;;;;;;;5099493;28;20428;-46
2021/08/10 14:31:10;;;;;;;4.05;2.05;;;;;;;;;;5111836;28;20051;-48
2021/08/10 14:33:38;;;;;;;4.03;2.20;;;;;;;;;;5108979;28;20080;-48
2021/08/10 14:36:05;;;;;;;4.53;2.65;;;;;;;;;;5104047;28;20040;-46
2021/08/10 14:38:31;;;;;;;4.57;2.70;;;;;;;;;;5094997;28;20142;-46
2021/08/10 14:40:59;;;;;;;3.60;2.30;;;;;;;;;;5103323;28;20058;-47
2021/08/10 14:43:26;;;;;;;7.18;2.88;;;;;;;;;;5111765;28;20131;-47
2021/08/10 14:45:53;;;;;;;4.57;2.30;;;;;;;;;;5103858;28;20036;-45
2021/08/10 14:48:20;;;;;;;4.72;2.42;;;;;;;;;;5091546;28;20056;-44
2021/08/10 14:50:46;;;;;;;3.20;2.30;;;;;;;;;;5091285;28;20405;-48
2021/08/10 14:53:13;;;;;;;4.97;2.33;;;;;;;;;;5091482;28;20127;-43
2021/08/10 14:55:40;;;;;;;3.90;2.38;;;;;;;;;;5091126;28;20040;-48
2021/08/10 14:58:07;;;;;;;3.95;2.03;;;;;;;;;;5091483;28;20124;-46
2021/08/10 15:00:34;;;;;;;5.15;2.30;;;;;;;;;;5091576;28;20048;-44